createdAt,value
2023-09-09T00:00:53.292Z,19.98
2023-09-09T00:03:21.467Z,19.15
2023-09-09T00:05:48.636Z,19.15
2023-09-09T00:08:17.285Z,19.45
2023-09-09T00:10:43.911Z,18.08
2023-09-09T00:13:10.756Z,17.20
2023-09-09T00:15:37.694Z,17.15
2023-09-09T00:18:04.980Z,18.88
2023-09-09T00:20:36.947Z,17.40
2023-09-09T00:23:08.567Z,19.27
2023-09-09T00:25:39.115Z,19.02
2023-09-09T00:30:33.063Z,17.30
2023-09-09T00:33:00.125Z,16.63
2023-09-09T00:35:27.910Z,16.63
2023-09-09T00:37:55.564Z,17.48
2023-09-09T00:40:22.399Z,16.75
2023-09-09T00:42:49.360Z,16.35
2023-09-09T00:45:16.372Z,17.00
2023-09-09T00:47:43.268Z,16.27
2023-09-09T00:50:13.204Z,16.50
2023-09-09T00:52:40.792Z,17.13
2023-09-09T00:55:08.674Z,16.30
2023-09-09T00:57:35.574Z,17.25
2023-09-09T01:00:05.023Z,16.83
2023-09-09T01:02:32.752Z,17.65
2023-09-09T01:05:01.255Z,17.25
2023-09-09T01:07:28.841Z,17.83
2023-09-09T01:09:55.444Z,17.52
2023-09-09T01:12:25.653Z,17.45
2023-09-09T01:14:52.609Z,16.10
2023-09-09T01:17:19.627Z,17.15
2023-09-09T01:19:47.311Z,17.02
2023-09-09T01:22:20.005Z,18.73
2023-09-09T01:24:46.901Z,17.02
2023-09-09T01:27:15.869Z,19.58
2023-09-09T01:29:42.468Z,17.58
2023-09-09T01:32:09.165Z,18.98
2023-09-09T01:34:35.849Z,16.50
2023-09-09T01:37:02.504Z,18.35
2023-09-09T01:39:29.253Z,17.27
2023-09-09T01:41:55.839Z,16.40
2023-09-09T01:44:22.461Z,16.48
2023-09-09T01:46:49.187Z,17.98
2023-09-09T01:49:15.935Z,18.08
2023-09-09T01:51:42.527Z,16.35
2023-09-09T01:54:09.228Z,17.05
2023-09-09T01:56:35.868Z,18.42
2023-09-09T01:59:02.665Z,16.73
2023-09-09T02:01:29.885Z,17.42
2023-09-09T02:03:56.768Z,17.92
2023-09-09T02:06:23.729Z,17.83
2023-09-09T02:08:50.469Z,18.50
2023-09-09T02:11:17.104Z,18.02
2023-09-09T02:13:43.712Z,16.90
2023-09-09T02:16:10.539Z,17.25
2023-09-09T02:18:41.169Z,18.30
2023-09-09T02:21:08.373Z,16.40
2023-09-09T02:23:35.368Z,17.13
2023-09-09T02:26:02.413Z,16.67
2023-09-09T02:28:29.109Z,17.77
2023-09-09T02:30:56.119Z,17.42
2023-09-09T02:33:22.973Z,17.55
2023-09-09T02:35:49.632Z,18.58
2023-09-09T02:38:16.289Z,19.83
2023-09-09T02:40:42.916Z,19.52
2023-09-09T02:43:09.843Z,19.70
2023-09-09T02:45:36.583Z,22.23
2023-09-09T02:48:03.616Z,19.45
2023-09-09T02:50:30.212Z,20.83
2023-09-09T02:52:57.065Z,19.50
2023-09-09T02:55:23.870Z,21.77
2023-09-09T02:57:50.568Z,19.85
2023-09-09T03:00:18.024Z,20.70
2023-09-09T03:02:44.860Z,20.92
2023-09-09T03:05:12.163Z,20.42
2023-09-09T03:07:39.580Z,20.65
2023-09-09T03:10:06.863Z,20.00
2023-09-09T03:12:33.903Z,21.02
2023-09-09T03:15:00.783Z,22.52
2023-09-09T03:17:30.087Z,22.63
2023-09-09T03:19:56.683Z,21.80
2023-09-09T03:22:23.380Z,22.27
2023-09-09T03:24:50.163Z,21.98
2023-09-09T03:27:16.797Z,21.13
2023-09-09T03:29:43.627Z,21.67
2023-09-09T03:32:10.235Z,20.83
2023-09-09T03:34:36.893Z,19.92
2023-09-09T03:37:03.669Z,22.65
2023-09-09T03:39:30.412Z,22.48
2023-09-09T03:41:56.992Z,21.30
2023-09-09T03:44:23.685Z,21.08
2023-09-09T03:46:50.308Z,21.60
2023-09-09T03:49:17.009Z,20.35
2023-09-09T03:51:45.846Z,22.23
2023-09-09T03:54:12.470Z,20.95
2023-09-09T03:56:39.041Z,21.42
2023-09-09T03:59:05.805Z,21.33
2023-09-09T04:01:32.801Z,21.10
2023-09-09T04:03:59.667Z,21.42
2023-09-09T04:06:28.175Z,21.20
2023-09-09T04:08:57.639Z,24.27
2023-09-09T04:11:24.858Z,23.98
2023-09-09T04:13:51.667Z,24.85
2023-09-09T04:16:18.413Z,25.15
2023-09-09T04:18:46.726Z,25.15
2023-09-09T04:21:14.349Z,23.73
2023-09-09T04:23:41.244Z,24.77
2023-09-09T04:26:08.417Z,24.00
2023-09-09T04:28:35.234Z,23.02
2023-09-09T04:31:02.060Z,23.95
2023-09-09T04:33:28.806Z,22.60
2023-09-09T04:35:55.603Z,22.67
2023-09-09T04:38:24.314Z,22.13
2023-09-09T04:40:51.072Z,21.88
2023-09-09T04:43:19.225Z,22.13
2023-09-09T04:45:46.095Z,21.38
2023-09-09T04:48:13.235Z,23.50
2023-09-09T04:50:39.990Z,22.08
2023-09-09T04:53:06.853Z,23.80
2023-09-09T04:55:33.778Z,22.52
2023-09-09T04:58:00.618Z,25.02
2023-09-09T05:00:27.328Z,23.70
2023-09-09T05:02:54.024Z,25.60
2023-09-09T05:05:20.847Z,25.17
2023-09-09T05:07:47.531Z,29.55
2023-09-09T05:10:15.007Z,25.73
2023-09-09T05:12:44.344Z,26.40
2023-09-09T05:15:14.557Z,26.50
2023-09-09T05:17:41.659Z,25.50
2023-09-09T05:20:08.981Z,25.15
2023-09-09T05:22:35.664Z,26.90
2023-09-09T05:25:02.326Z,26.27
2023-09-09T05:27:29.056Z,25.48
2023-09-09T05:29:55.666Z,27.15
2023-09-09T05:32:23.294Z,24.73
2023-09-09T05:34:50.043Z,26.23
2023-09-09T05:37:17.365Z,25.85
2023-09-09T05:39:44.137Z,27.48
2023-09-09T05:42:10.802Z,27.90
2023-09-09T05:44:37.956Z,25.40
2023-09-09T05:47:08.247Z,28.17
2023-09-09T05:49:39.608Z,25.63
2023-09-09T05:52:07.987Z,27.17
2023-09-09T05:54:34.721Z,26.55
2023-09-09T05:57:01.726Z,24.40
2023-09-09T05:59:28.533Z,24.00
2023-09-09T06:01:55.433Z,27.83
2023-09-09T06:04:22.363Z,25.17
2023-09-09T06:06:49.627Z,25.60
2023-09-09T06:09:16.563Z,26.00
2023-09-09T06:11:43.406Z,26.90
2023-09-09T06:14:10.172Z,26.70
2023-09-09T06:16:36.824Z,28.77
2023-09-09T06:19:03.564Z,28.42
2023-09-09T06:21:31.411Z,27.92
2023-09-09T06:23:58.016Z,28.10
2023-09-09T06:26:24.772Z,28.10
2023-09-09T06:28:51.917Z,28.58
2023-09-09T06:31:18.711Z,26.63
2023-09-09T06:33:45.727Z,27.15
2023-09-09T06:36:12.754Z,26.63
2023-09-09T06:38:39.663Z,27.40
2023-09-09T06:41:06.460Z,28.45
2023-09-09T06:43:33.146Z,27.98
2023-09-09T06:46:01.642Z,27.45
2023-09-09T06:48:30.373Z,26.55
2023-09-09T06:50:57.550Z,29.90
2023-09-09T06:53:25.787Z,27.38
2023-09-09T06:55:53.339Z,27.40
2023-09-09T06:58:20.123Z,27.83
2023-09-09T07:00:53.434Z,28.88
2023-09-09T07:03:21.111Z,28.13
2023-09-09T07:05:48.320Z,26.65
2023-09-09T07:08:15.033Z,25.08
2023-09-09T07:10:54.297Z,23.75
2023-09-09T07:13:24.433Z,25.75
2023-09-09T07:15:54.917Z,24.65
2023-09-09T07:18:22.312Z,25.55
2023-09-09T07:20:50.136Z,23.95
2023-09-09T07:23:18.716Z,25.80
2023-09-09T07:25:46.130Z,25.80
2023-09-09T07:28:12.975Z,28.40
2023-09-09T07:30:40.026Z,31.13
2023-09-09T07:33:06.800Z,28.63
2023-09-09T07:35:36.467Z,25.20
2023-09-09T07:38:07.404Z,26.83
2023-09-09T07:40:34.297Z,26.75
2023-09-09T07:43:01.367Z,25.67
2023-09-09T07:45:28.694Z,26.38
2023-09-09T07:47:55.645Z,28.77
2023-09-09T07:50:22.470Z,27.48
2023-09-09T07:52:49.220Z,28.38
2023-09-09T07:55:15.997Z,28.38
2023-09-09T07:57:42.600Z,28.35
2023-09-09T08:00:09.687Z,28.98
2023-09-09T08:02:39.554Z,30.73
2023-09-09T08:05:07.885Z,28.40
2023-09-09T08:07:35.230Z,29.05
2023-09-09T08:10:02.038Z,31.90
2023-09-09T08:12:28.813Z,29.90
2023-09-09T08:15:12.514Z,28.58
2023-09-09T08:17:39.696Z,32.38
2023-09-09T08:20:09.037Z,29.80
2023-09-09T08:22:36.260Z,29.20
2023-09-09T08:25:03.660Z,28.23
2023-09-09T08:27:30.446Z,32.00
2023-09-09T08:29:58.137Z,29.77
2023-09-09T08:32:25.000Z,31.92
2023-09-09T08:34:53.353Z,31.55
2023-09-09T08:37:20.162Z,32.28
2023-09-09T08:39:46.863Z,34.55
2023-09-09T08:42:40.804Z,29.92
2023-09-09T08:45:30.361Z,29.27
2023-09-09T08:47:57.370Z,28.20
2023-09-09T08:50:26.233Z,33.25
2023-09-09T08:52:57.267Z,29.13
2023-09-09T08:55:24.014Z,28.40
2023-09-09T08:57:51.316Z,29.42
2023-09-09T09:00:19.025Z,31.92
2023-09-09T09:02:48.954Z,29.98
2023-09-09T09:05:18.042Z,29.90
2023-09-09T09:07:44.862Z,28.23
2023-09-09T09:10:11.756Z,31.08
2023-09-09T09:12:41.614Z,31.55
2023-09-09T09:15:11.791Z,31.67
2023-09-09T09:17:42.186Z,27.95
2023-09-09T09:20:26.545Z,32.17
2023-09-09T09:22:57.276Z,27.10
2023-09-09T09:25:24.500Z,29.90
2023-09-09T09:27:51.355Z,31.45
2023-09-09T09:30:26.110Z,32.33
2023-09-09T09:32:55.636Z,29.23
2023-09-09T09:35:29.604Z,30.98
2023-09-09T09:38:04.704Z,28.30
2023-09-09T09:40:31.818Z,28.60
2023-09-09T09:42:58.793Z,28.90
2023-09-09T09:45:30.580Z,30.75
2023-09-09T09:47:59.353Z,34.05
2023-09-09T09:50:32.085Z,29.13
2023-09-09T09:53:01.733Z,28.05
2023-09-09T09:55:30.074Z,27.03
2023-09-09T09:58:05.943Z,27.13
2023-09-09T10:00:33.515Z,24.58
2023-09-09T10:03:02.769Z,29.45
2023-09-09T10:05:30.892Z,28.20
2023-09-09T10:08:07.423Z,26.98
2023-09-09T10:10:36.916Z,27.20
2023-09-09T10:13:28.206Z,25.50
2023-09-09T10:15:56.825Z,24.55
2023-09-09T10:18:26.419Z,23.85
2023-09-09T10:20:53.907Z,22.93
2023-09-09T10:23:23.084Z,22.42
2023-09-09T10:25:54.357Z,22.20
2023-09-09T10:28:22.330Z,21.50
2023-09-09T10:30:54.453Z,22.15
2023-09-09T10:33:22.040Z,22.50
2023-09-09T10:35:51.735Z,24.08
2023-09-09T10:38:19.452Z,23.42
2023-09-09T10:40:51.006Z,27.40
2023-09-09T10:43:17.922Z,22.20
2023-09-09T10:45:45.223Z,24.02
2023-09-09T10:48:12.754Z,24.77
2023-09-09T10:50:45.844Z,23.15
2023-09-09T10:53:27.977Z,24.30
2023-09-09T10:55:56.644Z,25.67
2023-09-09T10:58:35.760Z,25.10
2023-09-09T11:01:03.311Z,24.90
2023-09-09T11:03:56.349Z,23.02
2023-09-09T11:06:31.859Z,25.27
2023-09-09T11:09:01.455Z,27.15
2023-09-09T11:11:34.669Z,24.13
2023-09-09T11:14:08.709Z,25.80
2023-09-09T11:16:43.369Z,26.92
2023-09-09T11:19:15.465Z,23.05
2023-09-09T11:21:46.568Z,27.80
2023-09-09T11:24:14.058Z,29.92
2023-09-09T11:26:45.758Z,26.33
2023-09-09T11:29:25.774Z,25.92
2023-09-09T11:31:59.982Z,25.05
2023-09-09T11:34:31.436Z,25.55
2023-09-09T11:36:58.125Z,28.20
2023-09-09T11:39:24.825Z,23.83
2023-09-09T11:41:51.494Z,25.77
2023-09-09T11:44:18.184Z,25.70
2023-09-09T11:46:47.656Z,26.85
2023-09-09T11:49:17.324Z,24.50
2023-09-09T11:51:44.820Z,23.13
2023-09-09T11:54:12.973Z,22.42
2023-09-09T11:56:39.609Z,22.30
2023-09-09T11:59:11.096Z,23.15
2023-09-09T12:01:45.256Z,21.35
2023-09-09T12:04:13.753Z,20.92
2023-09-09T12:06:46.597Z,20.20
2023-09-09T12:09:14.976Z,21.65
2023-09-09T12:11:43.073Z,20.20
2023-09-09T12:14:11.990Z,20.25
2023-09-09T12:16:40.109Z,20.00
2023-09-09T12:19:07.078Z,20.25
2023-09-09T12:21:44.573Z,21.45
2023-09-09T12:24:11.342Z,19.40
2023-09-09T12:26:38.059Z,21.33
2023-09-09T12:29:09.123Z,18.55
2023-09-09T12:31:59.718Z,18.65
2023-09-09T12:34:27.941Z,17.15
2023-09-09T12:36:59.541Z,19.38
2023-09-09T12:39:28.051Z,18.30
2023-09-09T12:42:08.675Z,20.08
2023-09-09T12:44:52.208Z,18.92
2023-09-09T12:47:22.875Z,20.92
2023-09-09T12:49:51.380Z,20.85
2023-09-09T12:52:18.215Z,20.58
2023-09-09T12:54:47.317Z,17.27
2023-09-09T12:57:14.104Z,17.02
2023-09-09T12:59:40.928Z,18.40
2023-09-09T13:02:07.740Z,17.35
2023-09-09T13:04:34.444Z,17.15
2023-09-09T13:07:03.477Z,16.38
2023-09-09T13:09:30.347Z,18.35
2023-09-09T13:11:57.001Z,17.73
2023-09-09T13:14:26.919Z,17.33
2023-09-09T13:16:55.614Z,18.67
2023-09-09T13:19:23.379Z,18.75
2023-09-09T13:21:51.357Z,18.83
2023-09-09T13:24:18.168Z,21.05
2023-09-09T13:26:44.807Z,18.90
2023-09-09T13:29:11.464Z,19.77
2023-09-09T13:31:38.591Z,18.92
2023-09-09T13:34:05.327Z,17.85
2023-09-09T13:36:31.957Z,19.50
2023-09-09T13:38:58.599Z,19.55
2023-09-09T13:41:29.698Z,17.85
2023-09-09T13:43:56.679Z,19.33
2023-09-09T13:46:23.625Z,18.33
2023-09-09T13:48:50.278Z,17.27
2023-09-09T13:51:16.950Z,18.65
2023-09-09T13:53:43.813Z,17.90
2023-09-09T13:56:10.525Z,18.13
2023-09-09T13:58:37.174Z,19.25
2023-09-09T14:01:04.132Z,16.95
2023-09-09T14:03:31.057Z,16.13
2023-09-09T14:05:59.150Z,20.52
2023-09-09T14:08:26.399Z,16.88
2023-09-09T14:10:53.210Z,18.67
2023-09-09T14:13:19.789Z,17.77
2023-09-09T14:15:47.207Z,18.00
2023-09-09T14:18:14.916Z,19.17
2023-09-09T14:20:44.251Z,18.40
2023-09-09T14:23:11.393Z,18.38
2023-09-09T14:25:38.472Z,19.17
2023-09-09T14:28:05.925Z,20.92
2023-09-09T14:30:33.051Z,18.67
2023-09-09T14:32:59.851Z,18.20
2023-09-09T14:35:26.605Z,18.55
2023-09-09T14:37:53.270Z,19.08
2023-09-09T14:40:19.941Z,19.10
2023-09-09T14:42:46.543Z,17.25
2023-09-09T14:45:13.252Z,17.35
2023-09-09T14:47:39.949Z,15.90
2023-09-09T14:50:07.612Z,15.32
2023-09-09T14:52:34.365Z,19.55
2023-09-09T14:55:01.057Z,16.75
2023-09-09T14:57:27.966Z,15.65
2023-09-09T14:59:54.876Z,18.48
2023-09-09T15:02:21.580Z,16.30
2023-09-09T15:04:48.297Z,19.98
2023-09-09T15:07:15.844Z,17.58
2023-09-09T15:09:43.018Z,19.02
2023-09-09T15:12:10.573Z,16.95
2023-09-09T15:14:37.842Z,18.08
2023-09-09T15:17:05.316Z,16.63
2023-09-09T15:19:32.755Z,15.23
2023-09-09T15:21:59.472Z,15.63
2023-09-09T15:24:26.184Z,17.13
2023-09-09T15:26:52.909Z,18.13
2023-09-09T15:29:19.669Z,16.48
2023-09-09T15:31:46.429Z,15.38
2023-09-09T15:34:13.934Z,19.95
2023-09-09T15:36:40.740Z,15.63
2023-09-09T15:39:11.183Z,16.33
2023-09-09T15:41:47.117Z,20.20
2023-09-09T15:44:13.869Z,15.23
2023-09-09T15:46:40.652Z,16.83
2023-09-09T15:49:07.597Z,16.48
2023-09-09T15:51:34.334Z,18.77
2023-09-09T15:54:02.377Z,17.52
2023-09-09T15:56:29.260Z,15.27
2023-09-09T15:58:56.032Z,15.57
2023-09-09T16:01:22.881Z,16.67
2023-09-09T16:03:49.690Z,16.02
2023-09-09T16:06:16.466Z,16.63
2023-09-09T16:08:43.279Z,20.65
2023-09-09T16:11:10.128Z,21.75
2023-09-09T16:13:37.655Z,17.67
2023-09-09T16:16:09.577Z,19.13
2023-09-09T16:18:41.537Z,19.20
2023-09-09T16:21:08.658Z,19.23
2023-09-09T16:23:35.934Z,17.20
2023-09-09T16:26:03.314Z,16.25
2023-09-09T16:28:30.357Z,15.25
2023-09-09T16:30:57.239Z,14.80
2023-09-09T16:33:24.229Z,15.77
2023-09-09T16:35:51.039Z,17.40
2023-09-09T16:38:18.095Z,14.05
2023-09-09T16:40:46.091Z,14.32
2023-09-09T16:43:12.744Z,15.15
2023-09-09T16:45:40.917Z,17.00
2023-09-09T16:48:11.315Z,16.20
2023-09-09T16:53:05.652Z,14.27
2023-09-09T16:55:32.499Z,18.10
2023-09-09T16:57:59.196Z,15.20
2023-09-09T17:00:25.865Z,16.48
2023-09-09T17:02:52.636Z,15.70
2023-09-09T17:05:19.406Z,15.25
2023-09-09T17:07:46.152Z,14.60
2023-09-09T17:10:12.966Z,15.05
2023-09-09T17:12:39.630Z,15.20
2023-09-09T17:15:07.120Z,13.88
2023-09-09T17:17:33.857Z,14.98
2023-09-09T17:20:00.707Z,14.48
2023-09-09T17:22:27.491Z,14.43
2023-09-09T17:24:54.614Z,15.00
2023-09-09T17:27:21.308Z,17.48
2023-09-09T17:29:48.192Z,16.48
2023-09-09T17:32:15.086Z,13.70
2023-09-09T17:34:43.020Z,15.13
2023-09-09T17:37:10.676Z,15.07
2023-09-09T17:39:37.549Z,16.42
2023-09-09T17:42:04.511Z,16.05
2023-09-09T17:44:31.487Z,15.63
2023-09-09T17:46:58.828Z,16.88
2023-09-09T17:49:26.964Z,18.02
2023-09-09T17:51:55.457Z,15.38
2023-09-09T17:54:26.452Z,15.35
2023-09-09T17:56:55.464Z,14.88
2023-09-09T17:59:22.641Z,13.93
2023-09-09T18:01:50.036Z,15.40
2023-09-09T18:04:17.422Z,15.50
2023-09-09T18:06:44.249Z,15.60
2023-09-09T18:09:11.173Z,15.93
2023-09-09T18:11:37.941Z,17.60
2023-09-09T18:14:04.580Z,17.13
2023-09-09T18:16:32.780Z,16.40
2023-09-09T18:19:00.062Z,15.40
2023-09-09T18:21:26.958Z,16.88
2023-09-09T18:23:54.006Z,16.27
2023-09-09T18:26:21.186Z,18.25
2023-09-09T18:28:48.623Z,16.38
2023-09-09T18:31:15.586Z,15.32
2023-09-09T18:33:42.529Z,17.92
2023-09-09T18:36:09.191Z,15.43
2023-09-09T18:38:35.932Z,15.98
2023-09-09T18:41:04.038Z,15.35
2023-09-09T18:43:31.116Z,16.20
2023-09-09T18:45:59.521Z,18.17
2023-09-09T18:48:26.865Z,19.73
2023-09-09T18:50:53.474Z,16.80
2023-09-09T18:53:21.064Z,17.88
2023-09-09T18:55:48.111Z,18.67
2023-09-09T18:58:14.889Z,18.40
2023-09-09T19:00:41.772Z,17.20
2023-09-09T19:03:08.759Z,20.80
2023-09-09T19:05:36.059Z,18.25
2023-09-09T19:08:03.028Z,16.23
2023-09-09T19:10:29.780Z,19.40
2023-09-09T19:12:56.402Z,19.40
2023-09-09T19:15:24.399Z,20.58
2023-09-09T19:17:51.596Z,19.52
2023-09-09T19:20:18.459Z,22.42
2023-09-09T19:22:47.606Z,23.23
2023-09-09T19:25:14.446Z,19.77
2023-09-09T19:27:41.225Z,19.35
2023-09-09T19:30:09.239Z,20.35
2023-09-09T19:32:36.143Z,21.27
2023-09-09T19:35:02.993Z,20.40
2023-09-09T19:37:29.850Z,23.25
2023-09-09T19:40:00.502Z,24.25
2023-09-09T19:42:27.884Z,20.88
2023-09-09T19:44:58.563Z,22.15
2023-09-09T19:47:26.544Z,25.17
2023-09-09T19:49:54.212Z,22.63
2023-09-09T19:52:22.048Z,22.75
2023-09-09T19:54:48.887Z,24.25
2023-09-09T19:57:15.532Z,24.05
2023-09-09T19:59:42.293Z,23.67
2023-09-09T20:02:09.052Z,23.77
2023-09-09T20:04:35.876Z,22.85
2023-09-09T20:07:03.671Z,21.98
2023-09-09T20:09:30.624Z,23.52
2023-09-09T20:11:57.392Z,23.60
2023-09-09T20:14:25.338Z,24.60
2023-09-09T20:16:52.082Z,24.60
2023-09-09T20:19:19.467Z,22.50
2023-09-09T20:21:46.192Z,23.80
2023-09-09T20:24:12.939Z,26.23
2023-09-09T20:26:39.658Z,23.83
2023-09-09T20:29:07.185Z,27.02
2023-09-09T20:31:34.198Z,23.35
2023-09-09T20:34:00.908Z,24.13
2023-09-09T20:36:27.733Z,22.02
2023-09-09T20:38:56.315Z,23.02
2023-09-09T20:41:22.938Z,24.02
2023-09-09T20:43:49.856Z,23.20
2023-09-09T20:46:18.830Z,24.73
2023-09-09T20:48:45.645Z,24.60
2023-09-09T20:51:12.411Z,23.88
2023-09-09T20:53:39.202Z,23.98
2023-09-09T20:56:10.173Z,24.73
2023-09-09T20:58:37.803Z,23.63
2023-09-09T21:01:04.807Z,24.20
2023-09-09T21:03:31.733Z,28.08
2023-09-09T21:05:58.810Z,28.63
2023-09-09T21:08:25.527Z,27.83
2023-09-09T21:10:53.109Z,26.10
2023-09-09T21:13:24.349Z,24.13
2023-09-09T21:15:51.456Z,25.25
2023-09-09T21:18:18.537Z,26.60
2023-09-09T21:20:45.664Z,24.23
2023-09-09T21:23:12.700Z,26.73
2023-09-09T21:25:40.972Z,27.02
2023-09-09T21:28:08.144Z,29.30
2023-09-09T21:30:35.076Z,28.25
2023-09-09T21:33:02.293Z,26.02
2023-09-09T21:35:29.507Z,29.88
2023-09-09T21:37:56.568Z,28.35
2023-09-09T21:40:23.566Z,27.52
2023-09-09T21:42:50.313Z,27.38
2023-09-09T21:45:17.099Z,27.95
2023-09-09T21:47:43.904Z,26.50
2023-09-09T21:50:10.956Z,26.95
2023-09-09T21:52:37.847Z,27.40
2023-09-09T21:55:04.890Z,27.92
2023-09-09T21:57:34.619Z,25.98
2023-09-09T22:00:01.689Z,27.33
2023-09-09T22:02:28.819Z,26.40
2023-09-09T22:04:55.697Z,26.33
2023-09-09T22:07:22.534Z,27.23
2023-09-09T22:09:49.263Z,27.17
2023-09-09T22:12:15.956Z,27.48
2023-09-09T22:14:42.603Z,28.80
2023-09-09T22:17:09.514Z,29.48
2023-09-09T22:19:36.289Z,28.77
2023-09-09T22:22:02.930Z,30.25
2023-09-09T22:24:29.615Z,30.85
2023-09-09T22:27:00.506Z,31.30
2023-09-09T22:29:28.022Z,29.35
2023-09-09T22:31:55.470Z,30.00
2023-09-09T22:34:22.529Z,29.20
2023-09-09T22:36:49.430Z,29.17
2023-09-09T22:39:16.070Z,29.08
2023-09-09T22:41:42.938Z,28.45
2023-09-09T22:44:10.432Z,26.75
2023-09-09T22:46:37.283Z,27.05
2023-09-09T22:49:04.184Z,29.08
2023-09-09T22:51:31.041Z,28.40
2023-09-09T22:53:57.972Z,28.35
2023-09-09T22:56:24.716Z,31.35
2023-09-09T22:58:51.607Z,28.35
2023-09-09T23:01:18.578Z,31.48
2023-09-09T23:03:45.417Z,28.88
2023-09-09T23:06:12.351Z,28.40
2023-09-09T23:08:39.283Z,30.45
2023-09-09T23:11:11.157Z,28.10
2023-09-09T23:13:38.697Z,28.95
2023-09-09T23:16:05.404Z,31.17
2023-09-09T23:18:32.150Z,30.58
2023-09-09T23:21:01.017Z,30.70
2023-09-09T23:23:27.696Z,30.75
2023-09-09T23:25:55.449Z,31.08
2023-09-09T23:28:22.472Z,31.10
2023-09-09T23:30:58.528Z,30.35
2023-09-09T23:33:25.250Z,31.55
2023-09-09T23:35:51.925Z,31.73
2023-09-09T23:38:18.766Z,29.85
2023-09-09T23:40:45.904Z,28.85
2023-09-09T23:43:12.586Z,33.65
2023-09-09T23:45:39.261Z,30.70
2023-09-09T23:48:06.319Z,30.45
2023-09-09T23:50:33.120Z,30.80
2023-09-09T23:53:03.369Z,31.15
2023-09-09T23:55:30.962Z,31.65
2023-09-09T23:57:57.749Z,32.25
